KVHN Airport (Culberson County) Information

FAA: VHN - ICAO: KVHN

KVHN Airport Location

State Texas
County Culberson
City Van Horn
KVHN Airport is 3 miles northeast of Van Horn, TX.
Latitude 31-03-28.2000N
Longitude 104-47-01.7000W
Elevation 3,956ft

KVHN Airport METARs

METAR KVHN 201955Z AUTO 25003G19KT 10SM CLR 40/02 A2987 RMK AO2 T03980021
Altimeter 29.87"
Temperature 39.8°C (103.6°F)
Wind 250° at 3KT with gusts to 19KT
Clouds Skies are clear.
Visibility 10.0mi
Time observed: 2021-06-20T19:55:00Z

KVHN Airport Details

Status Operational
Activation November 1943
Ownership Public
Usage Public
Chart EL PASO
ATC on-site No
Beacon schedule sunset-sunrise
Beacon color clear green

KVHN Airport Contacts

Owner CULBERSON COUNTY
Owner address PO BOX 927, VAN HORN, TX 79855
Owner phone 915-283-2059
Manager BOBBYE SCOTT
Manager address 903 PAUL WILKENS RD, SAN ANTONIO, TX 78216
Manager phone 210-824-4900

KVHN Airport (Culberson County) Radio Frequencies

KVHN (Airport) Radio Frequencies

UNICOM N/A
Common traffic advisory frequency (CTAF) 122.9